Time;durP1;ratioP1;P1;durP2;ratioP2;P2;SDS_P1;SDS_P2;PMS_P1;PMS_P2;Temp;Humidity;BMP_temperature;BMP_pressure;BME280_temperature;BME280_humidity;BME280_pressure;Samples;Min_cycle;Max_cycle;Signal;HPM_P1;HPM_P2
2022/01/16 00:00:47;;;;;;;25.80;15.03;;;3.90;99.90;;;;;;5050702;28;20924;-42
2022/01/16 00:06:00;;;;;;;25.73;15.33;;;3.90;99.90;;;;;;5059947;28;20223;-41
2022/01/16 00:08:27;;;;;;;26.13;15.13;;;3.90;99.90;;;;;;5060923;28;20194;-44
2022/01/16 00:10:54;;;;;;;25.10;14.60;;;3.80;99.90;;;;;;5057399;28;20669;-44
2022/01/16 00:13:23;;;;;;;23.67;15.83;;;3.80;99.90;;;;;;5034025;28;20718;-42
2022/01/16 00:15:50;;;;;;;28.60;15.60;;;3.80;99.90;;;;;;5053135;28;20230;-40
2022/01/16 00:18:22;;;;;;;24.97;15.73;;;3.80;99.90;;;;;;5043448;28;20195;-41
2022/01/16 00:20:49;;;;;;;25.77;15.77;;;3.80;99.90;;;;;;5048655;28;20325;-41
2022/01/16 00:23:23;;;;;;;21.23;14.03;;;3.80;99.90;;;;;;5053398;28;20668;-41
2022/01/16 00:25:51;;;;;;;26.13;16.00;;;3.80;99.90;;;;;;5045675;28;20219;-44
2022/01/16 00:28:19;;;;;;;29.97;16.30;;;3.70;99.90;;;;;;5035679;28;20207;-44
2022/01/16 00:30:47;;;;;;;25.57;14.77;;;3.70;99.90;;;;;;5055052;28;20191;-43
2022/01/16 00:33:14;;;;;;;27.03;15.07;;;3.70;99.90;;;;;;5043420;28;20215;-42
2022/01/16 00:35:41;;;;;;;20.90;14.60;;;3.70;99.90;;;;;;5043666;28;20964;-42
2022/01/16 00:38:09;;;;;;;23.47;15.37;;;3.70;99.90;;;;;;5044697;28;20217;-40
2022/01/16 00:40:36;;;;;;;27.03;15.90;;;3.70;99.90;;;;;;5042958;28;20471;-43
2022/01/16 00:43:04;;;;;;;23.57;15.93;;;3.70;99.90;;;;;;5038725;28;20596;-45
2022/01/16 00:45:34;;;;;;;25.67;15.83;;;3.70;99.90;;;;;;5050387;28;20289;-43
2022/01/16 00:48:03;;;;;;;23.97;15.60;;;3.70;99.90;;;;;;5045062;28;20199;-46
2022/01/16 00:50:30;;;;;;;23.10;14.97;;;3.60;99.90;;;;;;5041023;28;20199;-42
2022/01/16 00:52:57;;;;;;;24.70;15.53;;;3.60;99.90;;;;;;5045217;28;20222;-43
2022/01/16 00:55:24;;;;;;;24.57;15.63;;;3.60;99.90;;;;;;5040201;28;20223;-43
2022/01/16 00:57:51;;;;;;;22.90;15.40;;;3.60;99.90;;;;;;5051944;28;20213;-42
2022/01/16 01:00:19;;;;;;;26.17;14.70;;;3.50;99.90;;;;;;5037032;28;20211;-41
2022/01/16 01:02:45;;;;;;;26.77;16.20;;;3.50;99.90;;;;;;5049635;28;20285;-41
2022/01/16 01:05:14;;;;;;;28.97;15.83;;;3.50;99.90;;;;;;5043293;28;20226;-42
2022/01/16 01:07:41;;;;;;;23.60;15.07;;;3.50;99.90;;;;;;5042740;28;20932;-42
2022/01/16 01:10:08;;;;;;;26.07;15.00;;;3.40;99.90;;;;;;5060764;28;20209;-40
2022/01/16 01:12:52;;;;;;;26.90;15.10;;;3.40;99.90;;;;;;5061024;28;20198;-42
2022/01/16 01:15:21;;;;;;;23.33;14.70;;;3.40;99.90;;;;;;5040745;28;20230;-40
2022/01/16 01:17:49;;;;;;;24.43;15.50;;;3.40;99.90;;;;;;5047613;28;20203;-42
2022/01/16 01:20:19;;;;;;;27.23;15.27;;;3.30;99.90;;;;;;5042323;28;20207;-42
2022/01/16 01:22:49;;;;;;;25.17;16.00;;;3.30;99.90;;;;;;5043920;28;20199;-46
2022/01/16 01:25:17;;;;;;;23.40;14.97;;;3.30;99.90;;;;;;5042273;28;20581;-41
2022/01/16 01:27:46;;;;;;;22.23;13.83;;;3.30;99.90;;;;;;5062274;28;20199;-45
2022/01/16 01:30:15;;;;;;;22.87;14.60;;;3.30;99.90;;;;;;5044434;28;20207;-44
2022/01/16 01:32:43;;;;;;;20.83;12.97;;;3.30;99.90;;;;;;5049861;28;20202;-45
2022/01/16 01:35:13;;;;;;;22.07;14.27;;;3.30;99.90;;;;;;5042964;28;20216;-42
2022/01/16 01:37:41;;;;;;;22.00;13.83;;;3.30;99.90;;;;;;5042248;28;20202;-43
2022/01/16 01:40:11;;;;;;;23.10;14.10;;;3.30;99.90;;;;;;5043751;28;20992;-41
2022/01/16 01:42:45;;;;;;;20.90;13.60;;;3.30;99.90;;;;;;5042038;28;20191;-43
2022/01/16 01:51:05;;;;;;;19.20;12.70;;;3.20;99.90;;;;;;5043135;28;20214;-42
2022/01/16 01:53:34;;;;;;;21.20;13.93;;;3.30;99.90;;;;;;5040031;28;20211;-41
2022/01/16 01:56:02;;;;;;;21.00;13.07;;;3.30;99.90;;;;;;5043336;28;20227;-45
2022/01/16 01:58:29;;;;;;;21.23;14.00;;;3.30;99.90;;;;;;5048087;28;20922;-45
2022/01/16 02:00:55;;;;;;;20.43;13.03;;;3.30;99.90;;;;;;5040064;28;20207;-43
2022/01/16 02:03:28;;;;;;;21.37;14.23;;;3.30;99.90;;;;;;5048875;28;20191;-42
2022/01/16 02:05:55;;;;;;;21.10;13.63;;;3.30;99.90;;;;;;5039246;28;20288;-42
2022/01/16 02:08:22;;;;;;;20.90;13.87;;;3.40;99.90;;;;;;5044012;28;20210;-42
2022/01/16 02:10:50;;;;;;;26.80;15.13;;;3.40;99.90;;;;;;5040284;28;20203;-41
2022/01/16 02:13:25;;;;;;;22.60;14.80;;;3.40;99.90;;;;;;5043821;28;20690;-41
2022/01/16 02:35:22;;;;;;;27.93;17.67;;;3.30;99.90;;;;;;5019616;28;20235;-43
2022/01/16 02:37:49;;;;;;;29.57;17.67;;;3.20;99.90;;;;;;5042867;28;20204;-44
2022/01/16 02:40:23;;;;;;;27.43;17.53;;;3.20;99.90;;;;;;5053979;28;20209;-41
2022/01/16 02:42:52;;;;;;;29.60;17.93;;;3.10;99.90;;;;;;5043426;28;20286;-41
2022/01/16 02:45:32;;;;;;;27.93;17.87;;;3.10;99.90;;;;;;5040828;28;20262;-40
2022/01/16 02:48:01;;;;;;;28.30;18.13;;;3.10;99.90;;;;;;5036037;28;20213;-42
2022/01/16 02:50:28;;;;;;;33.30;19.13;;;3.10;99.90;;;;;;5048870;28;20988;-41
2022/01/16 02:52:56;;;;;;;32.80;18.93;;;3.10;99.90;;;;;;5043335;28;20210;-46
2022/01/16 02:55:24;;;;;;;31.67;18.87;;;3.10;99.90;;;;;;5039832;28;20641;-42
2022/01/16 02:57:54;;;;;;;32.73;18.80;;;3.10;99.90;;;;;;5051383;28;21046;-44
2022/01/16 03:00:23;;;;;;;26.57;15.87;;;3.00;99.90;;;;;;5046751;28;20603;-41
2022/01/16 03:02:50;;;;;;;30.13;18.07;;;3.10;99.90;;;;;;5043195;28;20195;-43
2022/01/16 03:05:18;;;;;;;32.90;17.97;;;3.10;99.90;;;;;;5037960;28;20218;-42
2022/01/16 03:07:46;;;;;;;31.77;19.17;;;3.10;99.90;;;;;;5050164;28;20198;-46
2022/01/16 03:10:36;;;;;;;34.40;18.87;;;3.00;99.90;;;;;;5051306;28;20199;-40
2022/01/16 03:13:04;;;;;;;28.63;18.07;;;3.00;99.90;;;;;;5062296;28;20209;-41
2022/01/16 03:15:31;;;;;;;34.93;18.50;;;3.10;99.90;;;;;;5039052;28;20203;-44
2022/01/16 03:23:28;;;;;;;39.77;19.23;;;3.10;99.90;;;;;;5043055;28;20930;-46
2022/01/16 03:25:55;;;;;;;33.97;19.87;;;3.10;99.90;;;;;;5051029;28;20754;-42
2022/01/16 03:28:26;;;;;;;34.13;20.00;;;3.10;99.90;;;;;;5055861;28;20191;-44
2022/01/16 03:30:53;;;;;;;31.53;19.13;;;3.10;99.90;;;;;;5056533;28;20827;-43
2022/01/16 03:33:21;;;;;;;37.80;20.30;;;3.10;99.90;;;;;;5035130;28;20199;-45
2022/01/16 03:35:49;;;;;;;33.63;20.00;;;3.10;99.90;;;;;;5050516;28;20728;-43
2022/01/16 03:38:16;;;;;;;39.47;20.33;;;3.10;99.90;;;;;;5045706;28;20219;-42
2022/01/16 03:40:43;;;;;;;45.57;20.87;;;3.10;99.90;;;;;;5044850;28;20195;-42
2022/01/16 03:43:13;;;;;;;42.87;21.13;;;3.10;99.90;;;;;;5045862;28;20207;-46
2022/01/16 03:45:47;;;;;;;49.80;21.07;;;3.10;99.90;;;;;;5044540;28;20217;-44
2022/01/16 03:48:15;;;;;;;41.27;20.73;;;3.10;99.90;;;;;;5044852;28;20195;-43
2022/01/16 03:50:42;;;;;;;41.40;21.93;;;3.10;99.90;;;;;;5043517;28;20195;-42
2022/01/16 03:53:09;;;;;;;42.77;21.63;;;3.10;99.90;;;;;;5056627;28;20209;-42
2022/01/16 03:55:36;;;;;;;45.67;21.07;;;3.10;99.90;;;;;;5043240;28;20227;-45
2022/01/16 03:58:04;;;;;;;41.67;20.67;;;3.10;99.90;;;;;;5053970;28;20668;-44
2022/01/16 04:00:31;;;;;;;45.83;22.33;;;3.10;99.90;;;;;;5043155;28;20199;-44
2022/01/16 04:02:59;;;;;;;44.27;22.50;;;3.10;99.90;;;;;;5046272;28;20191;-41
2022/01/16 04:05:26;;;;;;;41.90;20.70;;;3.20;99.90;;;;;;5038553;28;20876;-41
2022/01/16 04:07:53;;;;;;;35.70;19.43;;;3.10;99.90;;;;;;5051895;28;20206;-47
2022/01/16 04:10:21;;;;;;;39.27;19.53;;;3.10;99.90;;;;;;5043468;28;20199;-47
2022/01/16 04:12:48;;;;;;;42.40;21.07;;;3.10;99.90;;;;;;5045580;28;20199;-41
2022/01/16 04:15:34;;;;;;;40.07;20.27;;;3.10;99.90;;;;;;5044112;28;20306;-45
2022/01/16 04:18:05;;;;;;;35.73;19.07;;;3.10;99.90;;;;;;5045619;28;20203;-41
2022/01/16 04:20:33;;;;;;;38.50;19.03;;;3.10;99.90;;;;;;5036913;28;20207;-41
2022/01/16 04:23:01;;;;;;;39.07;19.20;;;3.10;99.90;;;;;;5047030;28;20203;-45
2022/01/16 04:25:27;;;;;;;38.20;20.43;;;3.10;99.90;;;;;;5041724;28;20885;-42
2022/01/16 04:27:54;;;;;;;36.43;20.20;;;3.10;99.90;;;;;;5054791;28;20675;-42
2022/01/16 04:30:21;;;;;;;38.03;20.03;;;3.20;99.90;;;;;;5048837;28;20226;-44
2022/01/16 04:32:48;;;;;;;40.07;19.97;;;3.10;99.90;;;;;;5052563;28;20203;-47
2022/01/16 04:35:16;;;;;;;36.80;19.97;;;3.20;99.90;;;;;;5040910;28;20220;-42
2022/01/16 04:37:43;;;;;;;33.63;18.50;;;3.20;99.90;;;;;;5053676;28;20195;-40
2022/01/16 04:40:11;;;;;;;40.90;20.37;;;3.20;99.90;;;;;;5047785;28;20660;-42
2022/01/16 04:45:22;;;;;;;37.50;19.57;;;3.20;99.90;;;;;;5041967;28;20329;-41
2022/01/16 04:47:50;;;;;;;39.07;19.13;;;3.20;99.90;;;;;;5044943;28;20225;-41
2022/01/16 04:50:21;;;;;;;39.57;19.40;;;3.20;99.90;;;;;;5043162;28;20276;-43
2022/01/16 04:52:49;;;;;;;36.77;21.63;;;3.30;99.90;;;;;;5039052;28;20688;-48
2022/01/16 04:55:16;;;;;;;37.70;20.27;;;3.30;99.90;;;;;;5049953;28;20227;-43
2022/01/16 04:57:44;;;;;;;43.40;21.77;;;3.30;99.90;;;;;;5048786;28;20263;-43
2022/01/16 05:00:13;;;;;;;42.93;21.23;;;3.30;99.90;;;;;;5052220;28;20203;-41
2022/01/16 05:02:40;;;;;;;42.87;23.40;;;3.30;99.90;;;;;;5044128;28;20917;-45
2022/01/16 05:05:08;;;;;;;45.53;22.80;;;3.30;99.90;;;;;;5044712;28;20220;-43
2022/01/16 05:07:36;;;;;;;44.87;21.50;;;3.30;99.90;;;;;;5031796;28;21115;-43
2022/01/16 05:10:04;;;;;;;41.20;21.40;;;3.30;99.90;;;;;;5057715;28;20203;-44
2022/01/16 05:12:34;;;;;;;41.63;20.13;;;3.30;99.90;;;;;;5041820;28;20869;-41
2022/01/16 05:17:47;;;;;;;37.50;20.10;;;3.30;99.90;;;;;;5058020;28;20198;-42
2022/01/16 05:20:14;;;;;;;51.83;23.00;;;3.30;99.90;;;;;;5062262;28;20209;-46
2022/01/16 05:22:42;;;;;;;44.27;20.73;;;3.30;99.90;;;;;;5047452;28;23763;-43
2022/01/16 05:25:12;;;;;;;48.73;21.73;;;3.30;99.90;;;;;;5051127;28;20215;-44
2022/01/16 05:27:39;;;;;;;45.20;21.80;;;3.30;99.90;;;;;;5054875;28;20217;-43
2022/01/16 05:30:08;;;;;;;50.53;23.47;;;3.30;99.90;;;;;;5048627;28;20195;-44
2022/01/16 05:32:35;;;;;;;44.50;21.33;;;3.30;99.90;;;;;;5041181;28;20967;-40
2022/01/16 05:35:03;;;;;;;46.97;21.90;;;3.30;99.90;;;;;;5044376;28;20593;-43
2022/01/16 05:37:30;;;;;;;45.53;20.67;;;3.30;99.90;;;;;;5040062;28;20187;-45
2022/01/16 05:39:58;;;;;;;48.00;22.83;;;3.30;99.90;;;;;;5040998;28;20726;-43
2022/01/16 05:42:25;;;;;;;39.63;20.80;;;3.30;99.90;;;;;;5047811;28;20237;-42
2022/01/16 05:44:52;;;;;;;38.50;20.00;;;3.30;99.90;;;;;;5044177;28;20215;-41
2022/01/16 05:47:19;;;;;;;44.97;19.53;;;3.30;99.90;;;;;;5041249;28;20206;-43
2022/01/16 05:49:46;;;;;;;43.23;20.17;;;3.30;99.90;;;;;;5043155;28;20203;-42
2022/01/16 05:52:13;;;;;;;47.13;21.60;;;3.30;99.90;;;;;;5042754;28;20269;-41
2022/01/16 05:54:40;;;;;;;44.40;21.93;;;3.30;99.90;;;;;;5038510;28;20327;-44
2022/01/16 05:57:09;;;;;;;45.33;20.87;;;3.30;99.90;;;;;;5051455;28;20206;-47
2022/01/16 05:59:36;;;;;;;46.83;19.67;;;3.30;99.90;;;;;;5050086;28;20292;-42
2022/01/16 06:02:03;;;;;;;47.27;20.83;;;3.30;99.90;;;;;;5046449;28;20199;-41
2022/01/16 06:04:30;;;;;;;40.03;18.63;;;3.30;99.90;;;;;;5039792;28;20218;-44
2022/01/16 06:06:57;;;;;;;41.27;17.67;;;3.30;99.90;;;;;;5051604;28;20206;-41
2022/01/16 06:09:26;;;;;;;45.13;18.83;;;3.30;99.90;;;;;;5046777;28;20199;-42
2022/01/16 06:11:54;;;;;;;39.10;18.23;;;3.30;99.90;;;;;;5057806;28;20226;-42
2022/01/16 06:14:23;;;;;;;44.77;20.03;;;3.30;99.90;;;;;;5040753;28;20788;-42
2022/01/16 06:16:51;;;;;;;40.47;19.63;;;3.30;99.90;;;;;;5043558;28;20207;-44
2022/01/16 06:19:18;;;;;;;42.77;19.17;;;3.30;99.90;;;;;;5035722;28;20284;-43
2022/01/16 06:21:46;;;;;;;34.90;17.07;;;3.30;99.90;;;;;;5055007;28;20659;-40
2022/01/16 06:24:13;;;;;;;41.90;18.57;;;3.30;99.90;;;;;;5048773;28;20820;-41
2022/01/16 06:26:40;;;;;;;39.00;18.13;;;3.30;99.90;;;;;;5043065;28;20198;-41
2022/01/16 06:29:07;;;;;;;36.50;17.87;;;3.30;99.90;;;;;;5052423;28;20206;-43
2022/01/16 06:31:35;;;;;;;35.77;15.53;;;3.30;99.90;;;;;;5058899;28;20198;-43
2022/01/16 06:34:05;;;;;;;40.40;18.53;;;3.30;99.90;;;;;;5051543;28;20609;-44
2022/01/16 06:36:32;;;;;;;37.27;18.27;;;3.30;99.90;;;;;;5049460;28;20578;-43
2022/01/16 06:39:00;;;;;;;38.83;17.37;;;3.30;99.90;;;;;;5044712;28;20210;-41
2022/01/16 06:41:27;;;;;;;38.60;17.83;;;3.30;99.90;;;;;;5030641;28;20199;-43
2022/01/16 06:43:54;;;;;;;34.07;16.03;;;3.30;99.90;;;;;;5040431;28;20203;-44
2022/01/16 06:46:21;;;;;;;38.50;18.43;;;3.30;99.90;;;;;;5047980;28;20277;-42
2022/01/16 06:48:49;;;;;;;38.33;18.23;;;3.30;99.90;;;;;;5044163;28;20632;-44
2022/01/16 06:51:18;;;;;;;40.13;18.03;;;3.30;99.90;;;;;;5043200;28;21276;-43
2022/01/16 06:53:45;;;;;;;39.07;17.97;;;3.30;99.90;;;;;;5053692;28;20195;-42
2022/01/16 06:56:11;;;;;;;39.87;17.63;;;3.30;99.90;;;;;;5022894;28;20779;-44
2022/01/16 06:58:38;;;;;;;32.07;15.53;;;3.40;99.90;;;;;;5054299;28;20252;-45
2022/01/16 07:01:06;;;;;;;43.80;19.17;;;3.30;99.90;;;;;;5043286;28;20843;-41
2022/01/16 07:03:33;;;;;;;30.90;16.37;;;3.40;99.90;;;;;;5052133;28;20191;-44
2022/01/16 07:06:01;;;;;;;36.33;17.23;;;3.40;99.90;;;;;;5041290;28;20268;-44
2022/01/16 07:08:28;;;;;;;40.20;18.17;;;3.40;99.90;;;;;;5042843;28;20203;-41
2022/01/16 07:10:56;;;;;;;34.50;18.07;;;3.40;99.90;;;;;;5045010;28;20206;-45
2022/01/16 07:13:23;;;;;;;40.90;17.57;;;3.40;99.90;;;;;;5041155;28;20601;-41
2022/01/16 07:15:53;;;;;;;39.57;19.73;;;3.30;99.90;;;;;;5046402;28;20218;-43
2022/01/16 07:18:21;;;;;;;40.13;18.50;;;3.40;99.90;;;;;;5047447;28;20195;-43
2022/01/16 07:20:47;;;;;;;42.10;18.20;;;3.40;99.90;;;;;;5054908;28;20186;-44
2022/01/16 07:23:17;;;;;;;40.73;19.33;;;3.40;99.90;;;;;;5053012;28;20199;-44
2022/01/16 07:25:48;;;;;;;39.57;17.27;;;3.40;99.90;;;;;;5046259;28;20212;-41
2022/01/16 07:28:15;;;;;;;34.53;17.30;;;3.40;99.90;;;;;;5045848;28;20226;-42
2022/01/16 07:30:43;;;;;;;44.57;18.13;;;3.50;99.90;;;;;;5053908;28;20195;-42
2022/01/16 07:33:10;;;;;;;39.83;18.10;;;3.50;99.90;;;;;;5051707;28;20671;-41
2022/01/16 07:35:38;;;;;;;42.10;18.63;;;3.40;99.90;;;;;;5056157;28;20224;-43
2022/01/16 07:38:05;;;;;;;39.37;16.77;;;3.50;99.90;;;;;;5046654;28;20199;-42
2022/01/16 07:40:34;;;;;;;38.37;15.67;;;3.40;99.90;;;;;;5054540;28;20241;-41
2022/01/16 07:43:01;;;;;;;49.63;21.27;;;3.40;99.90;;;;;;5043536;28;20203;-43
2022/01/16 07:45:28;;;;;;;48.83;22.90;;;3.40;99.90;;;;;;5040799;28;20294;-43
2022/01/16 07:47:54;;;;;;;42.63;20.47;;;3.40;99.90;;;;;;5057059;28;20506;-43
2022/01/16 07:50:22;;;;;;;52.57;20.50;;;3.40;99.90;;;;;;5047149;28;20199;-48
2022/01/16 07:52:49;;;;;;;51.43;21.17;;;3.40;99.90;;;;;;5045274;28;20194;-42
2022/01/16 07:55:18;;;;;;;48.07;21.73;;;3.40;99.90;;;;;;5059123;28;20226;-45
2022/01/16 07:57:46;;;;;;;48.07;21.50;;;3.40;99.90;;;;;;5049930;28;20351;-43
2022/01/16 08:00:13;;;;;;;54.77;23.30;;;3.40;99.90;;;;;;5040920;28;20213;-41
2022/01/16 08:02:40;;;;;;;45.97;19.03;;;3.40;99.90;;;;;;5050863;28;20199;-40
2022/01/16 08:05:08;;;;;;;42.57;19.23;;;3.40;99.90;;;;;;5052328;28;20242;-45
2022/01/16 08:07:36;;;;;;;50.97;23.10;;;3.40;99.90;;;;;;5050300;28;20209;-40
2022/01/16 08:10:03;;;;;;;47.30;21.40;;;3.40;99.90;;;;;;5043535;28;20192;-43
2022/01/16 08:12:30;;;;;;;52.63;23.80;;;3.40;99.90;;;;;;5052601;28;20191;-42
2022/01/16 08:14:58;;;;;;;53.53;21.93;;;3.40;99.90;;;;;;5050390;28;20233;-43
2022/01/16 08:17:24;;;;;;;50.63;21.83;;;3.40;99.90;;;;;;5045618;28;20211;-41
2022/01/16 08:19:51;;;;;;;56.07;22.97;;;3.40;99.90;;;;;;5049206;28;20207;-45
2022/01/16 08:22:18;;;;;;;53.20;21.87;;;3.40;99.90;;;;;;5053063;28;20325;-44
2022/01/16 08:24:45;;;;;;;52.40;23.30;;;3.40;99.90;;;;;;5051718;28;20941;-41
2022/01/16 08:27:13;;;;;;;53.77;22.43;;;3.40;99.90;;;;;;5057580;28;20194;-42
2022/01/16 08:29:39;;;;;;;45.70;20.97;;;3.40;99.90;;;;;;5051419;28;20286;-41
2022/01/16 08:32:09;;;;;;;60.30;24.93;;;3.30;99.90;;;;;;5037245;28;20305;-41
2022/01/16 08:34:36;;;;;;;53.63;23.67;;;3.30;99.90;;;;;;5051411;28;20222;-42
2022/01/16 08:37:03;;;;;;;51.70;22.47;;;3.30;99.90;;;;;;5054067;28;20226;-39
2022/01/16 08:39:31;;;;;;;51.77;23.37;;;3.30;99.90;;;;;;5056773;28;20199;-44
2022/01/16 08:41:58;;;;;;;54.50;22.27;;;3.30;99.90;;;;;;5040618;28;20214;-42
2022/01/16 08:44:25;;;;;;;53.67;23.87;;;3.30;99.90;;;;;;5047627;28;20215;-41
2022/01/16 08:46:52;;;;;;;46.03;18.80;;;3.30;99.90;;;;;;5038321;28;20192;-41
2022/01/16 08:49:20;;;;;;;56.30;24.23;;;3.30;99.90;;;;;;5051400;28;20207;-41
2022/01/16 08:51:47;;;;;;;60.97;24.00;;;3.30;99.90;;;;;;5053884;28;20206;-40
2022/01/16 08:54:14;;;;;;;60.13;24.97;;;3.30;99.90;;;;;;5056336;28;20226;-40
2022/01/16 08:56:41;;;;;;;57.43;24.60;;;3.30;99.90;;;;;;5056050;28;20211;-41
2022/01/16 08:59:08;;;;;;;64.93;24.10;;;3.30;99.90;;;;;;5050072;28;20188;-43
2022/01/16 09:01:35;;;;;;;63.50;24.40;;;3.30;99.90;;;;;;5051278;28;20700;-39
2022/01/16 09:04:02;;;;;;;59.90;24.97;;;3.30;99.90;;;;;;5045533;28;20230;-43
2022/01/16 09:06:30;;;;;;;57.50;22.53;;;3.30;99.90;;;;;;5049838;28;20257;-44
2022/01/16 09:08:57;;;;;;;59.37;23.23;;;3.30;99.90;;;;;;5047032;28;20802;-39
2022/01/16 09:11:25;;;;;;;59.10;25.20;;;3.30;99.90;;;;;;5053267;28;20213;-40
2022/01/16 09:13:52;;;;;;;63.43;25.50;;;3.30;99.90;;;;;;5051629;28;20279;-42
2022/01/16 09:16:20;;;;;;;54.33;23.17;;;3.30;99.90;;;;;;5038780;28;20231;-41
2022/01/16 09:18:48;;;;;;;62.43;24.17;;;3.30;99.90;;;;;;5036816;28;20203;-40
2022/01/16 09:21:16;;;;;;;63.30;23.40;;;3.30;99.90;;;;;;5046167;28;20278;-43
2022/01/16 09:23:45;;;;;;;54.23;23.03;;;3.20;99.90;;;;;;5046194;28;20212;-41
2022/01/16 09:26:11;;;;;;;64.53;24.53;;;3.30;99.90;;;;;;5043640;28;20207;-40
2022/01/16 09:28:38;;;;;;;72.40;26.50;;;3.20;99.90;;;;;;5054752;28;20187;-42
2022/01/16 09:31:05;;;;;;;66.37;25.43;;;3.20;99.90;;;;;;5050732;28;20214;-40
2022/01/16 09:33:32;;;;;;;66.77;24.87;;;3.30;99.90;;;;;;5037836;28;20217;-41
2022/01/16 09:35:58;;;;;;;67.40;24.10;;;3.20;99.90;;;;;;5052210;28;20238;-42
2022/01/16 09:38:25;;;;;;;66.90;25.40;;;3.30;99.90;;;;;;5044611;28;20207;-40
2022/01/16 09:40:55;;;;;;;73.73;26.47;;;3.30;99.90;;;;;;5052580;28;20203;-43
2022/01/16 09:43:22;;;;;;;66.30;24.80;;;3.30;99.90;;;;;;5049531;28;20191;-40
2022/01/16 09:45:51;;;;;;;65.93;25.23;;;3.20;99.90;;;;;;5053430;28;20227;-39
2022/01/16 09:48:19;;;;;;;68.93;25.87;;;3.20;99.90;;;;;;5034126;28;20206;-40
2022/01/16 09:50:46;;;;;;;62.17;25.27;;;3.30;99.90;;;;;;5051867;28;20262;-43
2022/01/16 09:53:13;;;;;;;69.90;24.90;;;3.30;99.90;;;;;;5043773;28;20233;-42
2022/01/16 09:55:40;;;;;;;78.67;28.13;;;3.30;99.90;;;;;;5045612;28;20211;-40
2022/01/16 09:58:09;;;;;;;61.63;22.67;;;3.30;99.90;;;;;;5054322;28;20206;-41
2022/01/16 10:00:36;;;;;;;68.50;27.67;;;3.30;99.90;;;;;;5052848;28;20205;-41
2022/01/16 10:03:05;;;;;;;68.00;24.80;;;3.30;99.90;;;;;;5048766;28;20660;-41
2022/01/16 10:05:35;;;;;;;61.10;24.47;;;3.30;99.90;;;;;;5043156;28;20210;-39
2022/01/16 10:08:05;;;;;;;71.57;25.70;;;3.30;99.90;;;;;;5043928;28;20269;-40
2022/01/16 10:10:33;;;;;;;60.13;25.20;;;3.30;99.90;;;;;;5046741;28;20198;-40
2022/01/16 10:13:07;;;;;;;67.97;26.80;;;3.30;99.90;;;;;;5057696;28;20679;-40
2022/01/16 10:15:36;;;;;;;70.63;25.83;;;3.30;99.90;;;;;;5052570;28;20213;-40
2022/01/16 10:18:07;;;;;;;68.97;24.33;;;3.40;99.90;;;;;;5049393;28;20692;-40
2022/01/16 10:20:43;;;;;;;74.20;27.07;;;3.30;99.90;;;;;;5036035;28;20195;-42
2022/01/16 10:23:17;;;;;;;68.17;25.27;;;3.40;99.90;;;;;;5047815;28;20213;-41
2022/01/16 10:25:45;;;;;;;58.77;23.53;;;3.40;99.90;;;;;;5049446;28;20215;-40
2022/01/16 10:28:15;;;;;;;73.30;26.50;;;3.40;99.90;;;;;;5055326;28;20274;-43
2022/01/16 10:30:45;;;;;;;71.33;25.50;;;3.40;99.90;;;;;;5058440;28;20198;-40
2022/01/16 10:33:13;;;;;;;70.47;27.07;;;3.40;99.90;;;;;;5044977;28;20210;-40
2022/01/16 10:35:42;;;;;;;70.53;26.63;;;3.40;99.90;;;;;;5041866;28;20237;-41
2022/01/16 10:38:11;;;;;;;75.37;27.27;;;3.40;99.90;;;;;;5050716;28;20187;-42
2022/01/16 10:40:39;;;;;;;75.63;25.87;;;3.40;99.90;;;;;;5052243;28;20223;-40
2022/01/16 10:43:13;;;;;;;77.33;26.10;;;3.40;99.90;;;;;;5046133;28;20190;-42
2022/01/16 10:45:41;;;;;;;58.60;23.23;;;3.50;99.90;;;;;;5041075;28;20230;-40
2022/01/16 10:48:09;;;;;;;70.13;27.87;;;3.50;99.90;;;;;;5047348;28;20203;-40
2022/01/16 10:50:38;;;;;;;66.53;26.83;;;3.50;99.90;;;;;;5046412;28;20745;-39
2022/01/16 10:53:07;;;;;;;65.47;23.40;;;3.50;99.90;;;;;;5039005;28;20273;-40
2022/01/16 10:55:40;;;;;;;63.80;24.37;;;3.50;99.90;;;;;;5044505;28;20226;-43
2022/01/16 10:58:11;;;;;;;59.47;21.77;;;3.50;99.90;;;;;;5058348;28;20859;-41
2022/01/16 11:00:40;;;;;;;63.07;24.20;;;3.50;99.90;;;;;;5048107;28;20205;-41
2022/01/16 11:03:10;;;;;;;69.10;25.03;;;3.50;99.90;;;;;;5047538;28;20916;-39
2022/01/16 11:05:39;;;;;;;62.33;23.00;;;3.60;99.90;;;;;;5046603;28;20227;-41
2022/01/16 11:08:11;;;;;;;56.10;21.53;;;3.60;99.90;;;;;;5041378;28;20287;-40
2022/01/16 11:10:40;;;;;;;53.20;21.67;;;3.60;99.90;;;;;;5053685;28;20191;-42
2022/01/16 11:13:09;;;;;;;53.37;21.53;;;3.60;99.90;;;;;;5048988;28;20210;-43
2022/01/16 11:15:38;;;;;;;52.20;21.50;;;3.60;99.90;;;;;;5047497;28;20736;-41
2022/01/16 11:18:06;;;;;;;46.93;18.73;;;3.60;99.90;;;;;;5054031;28;20191;-41
2022/01/16 11:20:36;;;;;;;47.50;20.13;;;3.70;99.90;;;;;;5048533;28;20213;-41
2022/01/16 11:23:13;;;;;;;49.83;20.27;;;3.70;99.90;;;;;;5034227;28;20206;-42
2022/01/16 11:25:41;;;;;;;48.60;20.30;;;3.70;99.90;;;;;;5052726;28;20229;-41
2022/01/16 11:28:11;;;;;;;48.80;20.07;;;3.70;99.90;;;;;;5047971;28;20199;-42
2022/01/16 11:30:40;;;;;;;42.27;19.40;;;3.70;99.90;;;;;;5045483;28;20223;-41
2022/01/16 11:33:08;;;;;;;38.97;18.10;;;3.80;99.90;;;;;;5045115;28;20275;-41
2022/01/16 11:35:45;;;;;;;37.47;16.67;;;3.70;99.90;;;;;;5051205;28;20227;-42
2022/01/16 11:38:12;;;;;;;47.03;18.70;;;3.80;99.90;;;;;;5034652;28;20203;-41
2022/01/16 11:40:46;;;;;;;43.03;19.03;;;3.80;99.90;;;;;;5053812;28;20646;-42
2022/01/16 11:43:31;;;;;;;44.20;19.33;;;3.80;99.90;;;;;;5056801;28;20194;-40
2022/01/16 11:46:10;;;;;;;48.03;19.57;;;3.80;99.90;;;;;;5055059;28;20305;-43
2022/01/16 11:48:43;;;;;;;44.13;19.60;;;3.80;99.90;;;;;;5056228;28;20273;-40
2022/01/16 11:51:48;;;;;;;46.90;19.07;;;3.80;99.90;;;;;;5049711;28;20211;-46
2022/01/16 11:54:22;;;;;;;42.17;17.67;;;3.90;99.90;;;;;;5045635;28;20234;-43
2022/01/16 11:56:56;;;;;;;44.17;18.80;;;3.90;99.90;;;;;;5043447;28;20230;-45
2022/01/16 11:59:25;;;;;;;47.37;19.50;;;3.90;99.90;;;;;;5054073;28;20218;-46
2022/01/16 12:01:54;;;;;;;51.37;21.23;;;4.00;99.90;;;;;;5052395;28;20882;-43
2022/01/16 12:04:58;;;;;;;46.73;20.87;;;4.00;99.90;;;;;;5058255;28;20231;-43
2022/01/16 12:07:46;;;;;;;51.27;19.97;;;4.00;99.90;;;;;;5053592;28;20202;-41
2022/01/16 12:10:35;;;;;;;45.70;18.67;;;4.00;99.90;;;;;;5054931;28;20195;-39
2022/01/16 12:13:02;;;;;;;50.40;20.57;;;4.10;99.90;;;;;;5047319;28;20213;-43
2022/01/16 12:15:32;;;;;;;59.80;21.37;;;4.00;99.90;;;;;;5054249;28;20210;-44
2022/01/16 12:17:59;;;;;;;50.43;21.77;;;4.10;99.90;;;;;;5047235;28;20280;-41
2022/01/16 12:20:27;;;;;;;59.93;22.33;;;4.10;99.90;;;;;;5060074;28;20201;-42
2022/01/16 12:22:56;;;;;;;46.87;20.73;;;4.10;99.90;;;;;;5044519;28;20203;-46
2022/01/16 12:25:26;;;;;;;45.20;19.40;;;4.10;99.90;;;;;;5041577;28;20227;-44
2022/01/16 12:27:55;;;;;;;50.90;22.10;;;4.10;99.90;;;;;;5050832;28;20195;-42
2022/01/16 12:30:48;;;;;;;63.13;23.30;;;4.20;99.90;;;;;;5055272;28;20683;-44
2022/01/16 12:33:23;;;;;;;57.23;23.97;;;4.20;99.90;;;;;;5050807;28;20226;-40
2022/01/16 12:36:12;;;;;;;53.47;22.57;;;4.20;99.90;;;;;;5051315;28;20240;-45
2022/01/16 12:39:01;;;;;;;61.27;23.30;;;4.30;99.90;;;;;;5051262;28;20199;-40
2022/01/16 12:41:38;;;;;;;65.43;25.20;;;4.30;99.90;;;;;;5037912;28;20290;-41
2022/01/16 12:44:07;;;;;;;68.43;24.60;;;4.30;99.90;;;;;;5044914;28;20218;-44
2022/01/16 12:46:39;;;;;;;59.27;24.80;;;4.30;99.90;;;;;;5056336;28;20198;-42
2022/01/16 12:49:10;;;;;;;66.77;25.03;;;4.30;99.90;;;;;;5058702;28;20272;-44
2022/01/16 12:51:40;;;;;;;62.57;24.13;;;4.40;99.90;;;;;;5067193;28;20194;-41
2022/01/16 12:54:10;;;;;;;66.50;26.57;;;4.40;99.90;;;;;;5061582;28;20234;-45
2022/01/16 12:56:41;;;;;;;67.03;25.77;;;4.40;99.90;;;;;;5040039;28;20313;-40
2022/01/16 12:59:11;;;;;;;57.70;24.47;;;4.40;99.90;;;;;;5062226;28;20194;-44
2022/01/16 13:01:43;;;;;;;63.57;25.97;;;4.40;99.90;;;;;;5052844;28;20842;-40
2022/01/16 13:04:18;;;;;;;44.47;19.13;;;4.40;99.90;;;;;;5039629;28;20651;-40
2022/01/16 13:06:45;;;;;;;70.53;26.60;;;4.50;99.90;;;;;;5050251;28;20187;-41
2022/01/16 13:09:12;;;;;;;65.43;26.40;;;4.50;99.90;;;;;;5039365;28;20572;-44
2022/01/16 13:11:42;;;;;;;69.07;29.17;;;4.50;99.90;;;;;;5043122;28;20206;-44
2022/01/16 13:14:13;;;;;;;64.00;26.17;;;4.60;99.90;;;;;;5054777;28;20215;-40
2022/01/16 13:16:42;;;;;;;61.17;26.57;;;4.60;99.90;;;;;;5043938;28;20231;-41
2022/01/16 13:19:13;;;;;;;74.80;27.13;;;4.60;99.90;;;;;;5052659;28;20206;-42
2022/01/16 13:22:05;;;;;;;67.63;26.87;;;4.70;99.90;;;;;;5046388;28;20192;-41
2022/01/16 13:24:41;;;;;;;63.37;27.03;;;4.70;99.90;;;;;;5044725;28;21068;-41